sensor_id;sensor_type;location;lat;lon;timestamp;temperature;humidity
29007;DHT22;16104;48.642;9.008;2023-02-05T00:01:57;5.70;68.10
29007;DHT22;16104;48.642;9.008;2023-02-05T00:06:53;5.80;68.10
29007;DHT22;16104;48.642;9.008;2023-02-05T00:11:48;5.80;68.90
29007;DHT22;16104;48.642;9.008;2023-02-05T00:16:44;5.80;68.10
29007;DHT22;16104;48.642;9.008;2023-02-05T00:21:40;5.90;68.10
29007;DHT22;16104;48.642;9.008;2023-02-05T00:26:36;5.90;68.10
29007;DHT22;16104;48.642;9.008;2023-02-05T00:31:32;5.90;68.10
29007;DHT22;16104;48.642;9.008;2023-02-05T00:36:28;5.90;67.90
29007;DHT22;16104;48.642;9.008;2023-02-05T00:41:23;6.00;67.90
29007;DHT22;16104;48.642;9.008;2023-02-05T00:46:19;5.90;67.60
29007;DHT22;16104;48.642;9.008;2023-02-05T00:51:14;5.90;67.60
29007;DHT22;16104;48.642;9.008;2023-02-05T00:56:10;5.90;67.50
29007;DHT22;16104;48.642;9.008;2023-02-05T02:02:10;5.70;68.10
29007;DHT22;16104;48.642;9.008;2023-02-05T02:07:08;5.60;68.00
29007;DHT22;16104;48.642;9.008;2023-02-05T02:12:05;5.60;68.00
29007;DHT22;16104;48.642;9.008;2023-02-05T03:03:05;5.50;68.70
29007;DHT22;16104;48.642;9.008;2023-02-05T03:08:06;5.50;68.80
29007;DHT22;16104;48.642;9.008;2023-02-05T03:13:04;5.50;68.90
29007;DHT22;16104;48.642;9.008;2023-02-05T04:03:48;5.40;68.70
29007;DHT22;16104;48.642;9.008;2023-02-05T04:08:44;5.30;68.60
29007;DHT22;16104;48.642;9.008;2023-02-05T04:13:39;5.30;68.70
29007;DHT22;16104;48.642;9.008;2023-02-05T04:18:35;5.30;68.70
29007;DHT22;16104;48.642;9.008;2023-02-05T04:23:31;5.20;68.70
29007;DHT22;16104;48.642;9.008;2023-02-05T04:28:26;5.20;68.80
29007;DHT22;16104;48.642;9.008;2023-02-05T04:33:22;5.20;68.90
29007;DHT22;16104;48.642;9.008;2023-02-05T04:38:18;5.10;68.80
29007;DHT22;16104;48.642;9.008;2023-02-05T04:43:13;5.10;68.80
29007;DHT22;16104;48.642;9.008;2023-02-05T04:48:10;5.00;68.70
29007;DHT22;16104;48.642;9.008;2023-02-05T04:53:06;4.90;68.60
29007;DHT22;16104;48.642;9.008;2023-02-05T04:58:01;4.90;68.70
29007;DHT22;16104;48.642;9.008;2023-02-05T05:02:57;4.80;68.80
29007;DHT22;16104;48.642;9.008;2023-02-05T05:07:52;4.70;68.90
29007;DHT22;16104;48.642;9.008;2023-02-05T05:12:48;4.60;69.00
29007;DHT22;16104;48.642;9.008;2023-02-05T05:17:43;4.60;69.20
29007;DHT22;16104;48.642;9.008;2023-02-05T05:22:39;4.50;69.50
29007;DHT22;16104;48.642;9.008;2023-02-05T05:27:34;4.50;69.70
29007;DHT22;16104;48.642;9.008;2023-02-05T05:32:30;4.40;69.80
29007;DHT22;16104;48.642;9.008;2023-02-05T05:37:25;4.40;70.10
29007;DHT22;16104;48.642;9.008;2023-02-05T05:42:21;4.40;70.20
29007;DHT22;16104;48.642;9.008;2023-02-05T05:47:35;4.40;70.30
29007;DHT22;16104;48.642;9.008;2023-02-05T05:52:31;4.40;70.30
29007;DHT22;16104;48.642;9.008;2023-02-05T05:57:27;4.40;70.40
29007;DHT22;16104;48.642;9.008;2023-02-05T06:02:23;4.40;70.60
29007;DHT22;16104;48.642;9.008;2023-02-05T06:07:18;4.40;70.50
29007;DHT22;16104;48.642;9.008;2023-02-05T06:12:14;4.40;70.60
29007;DHT22;16104;48.642;9.008;2023-02-05T06:17:09;4.40;70.70
29007;DHT22;16104;48.642;9.008;2023-02-05T06:22:04;4.40;70.80
29007;DHT22;16104;48.642;9.008;2023-02-05T06:27:00;4.40;70.80
29007;DHT22;16104;48.642;9.008;2023-02-05T06:31:56;4.40;70.80
29007;DHT22;16104;48.642;9.008;2023-02-05T06:36:51;4.40;70.80
29007;DHT22;16104;48.642;9.008;2023-02-05T06:41:47;4.50;70.80
29007;DHT22;16104;48.642;9.008;2023-02-05T06:46:42;4.50;70.90
29007;DHT22;16104;48.642;9.008;2023-02-05T06:51:38;4.50;71.00
29007;DHT22;16104;48.642;9.008;2023-02-05T06:56:33;4.50;71.20
29007;DHT22;16104;48.642;9.008;2023-02-05T07:01:29;4.50;71.30
29007;DHT22;16104;48.642;9.008;2023-02-05T07:06:25;4.50;71.40
29007;DHT22;16104;48.642;9.008;2023-02-05T07:11:21;4.50;71.30
29007;DHT22;16104;48.642;9.008;2023-02-05T07:16:17;4.60;71.30
29007;DHT22;16104;48.642;9.008;2023-02-05T07:21:14;4.60;71.20
29007;DHT22;16104;48.642;9.008;2023-02-05T07:26:13;4.60;71.00
29007;DHT22;16104;48.642;9.008;2023-02-05T07:31:11;4.60;71.00
29007;DHT22;16104;48.642;9.008;2023-02-05T07:36:10;4.60;71.00
29007;DHT22;16104;48.642;9.008;2023-02-05T07:41:07;4.60;71.00
29007;DHT22;16104;48.642;9.008;2023-02-05T07:46:05;4.60;70.90
29007;DHT22;16104;48.642;9.008;2023-02-05T07:51:01;4.60;71.10
29007;DHT22;16104;48.642;9.008;2023-02-05T07:56:04;4.70;71.30
29007;DHT22;16104;48.642;9.008;2023-02-05T08:01:00;4.70;71.50
29007;DHT22;16104;48.642;9.008;2023-02-05T08:05:56;4.70;71.50
29007;DHT22;16104;48.642;9.008;2023-02-05T08:11:04;4.80;71.70
29007;DHT22;16104;48.642;9.008;2023-02-05T08:16:04;4.80;71.90
29007;DHT22;16104;48.642;9.008;2023-02-05T08:21:00;4.80;71.90
29007;DHT22;16104;48.642;9.008;2023-02-05T08:25:57;4.90;71.80
29007;DHT22;16104;48.642;9.008;2023-02-05T08:30:52;5.00;71.80
29007;DHT22;16104;48.642;9.008;2023-02-05T08:35:48;5.10;71.80
29007;DHT22;16104;48.642;9.008;2023-02-05T08:40:43;5.20;71.80
29007;DHT22;16104;48.642;9.008;2023-02-05T08:45:39;5.30;71.70
29007;DHT22;16104;48.642;9.008;2023-02-05T08:50:34;5.30;71.40
29007;DHT22;16104;48.642;9.008;2023-02-05T08:55:30;5.30;71.20
29007;DHT22;16104;48.642;9.008;2023-02-05T09:00:25;5.40;71.30
29007;DHT22;16104;48.642;9.008;2023-02-05T09:05:21;5.50;71.40
29007;DHT22;16104;48.642;9.008;2023-02-05T09:10:16;5.50;71.40
29007;DHT22;16104;48.642;9.008;2023-02-05T09:15:13;5.60;71.50
29007;DHT22;16104;48.642;9.008;2023-02-05T09:20:09;5.70;71.50
29007;DHT22;16104;48.642;9.008;2023-02-05T09:25:05;5.70;71.30
29007;DHT22;16104;48.642;9.008;2023-02-05T09:30:01;5.80;71.30
29007;DHT22;16104;48.642;9.008;2023-02-05T09:34:56;5.80;71.20
29007;DHT22;16104;48.642;9.008;2023-02-05T09:39:52;5.90;71.30
29007;DHT22;16104;48.642;9.008;2023-02-05T09:50:22;6.00;71.40
29007;DHT22;16104;48.642;9.008;2023-02-05T09:55:31;6.00;71.40
29007;DHT22;16104;48.642;9.008;2023-02-05T10:00:51;6.00;71.30
29007;DHT22;16104;48.642;9.008;2023-02-05T10:11:08;6.10;71.40
29007;DHT22;16104;48.642;9.008;2023-02-05T10:16:21;6.10;71.20
29007;DHT22;16104;48.642;9.008;2023-02-05T10:21:43;6.10;71.30
29007;DHT22;16104;48.642;9.008;2023-02-05T10:26:48;6.10;71.20
29007;DHT22;16104;48.642;9.008;2023-02-05T10:31:50;6.10;71.20
29007;DHT22;16104;48.642;9.008;2023-02-05T10:36:51;6.20;71.30
29007;DHT22;16104;48.642;9.008;2023-02-05T10:41:51;6.20;71.30
29007;DHT22;16104;48.642;9.008;2023-02-05T10:46:50;6.20;71.40
29007;DHT22;16104;48.642;9.008;2023-02-05T10:51:48;6.20;71.40
29007;DHT22;16104;48.642;9.008;2023-02-05T10:56:44;6.30;71.60
29007;DHT22;16104;48.642;9.008;2023-02-05T11:01:40;6.30;71.70
29007;DHT22;16104;48.642;9.008;2023-02-05T11:06:45;6.40;71.70
29007;DHT22;16104;48.642;9.008;2023-02-05T11:11:41;6.40;71.90
29007;DHT22;16104;48.642;9.008;2023-02-05T11:16:41;6.50;71.80
29007;DHT22;16104;48.642;9.008;2023-02-05T11:21:56;6.50;71.90
29007;DHT22;16104;48.642;9.008;2023-02-05T11:32:30;6.60;71.70
29007;DHT22;16104;48.642;9.008;2023-02-05T11:37:26;6.60;71.50
29007;DHT22;16104;48.642;9.008;2023-02-05T11:42:24;6.70;71.50
29007;DHT22;16104;48.642;9.008;2023-02-05T11:47:25;6.70;71.50
29007;DHT22;16104;48.642;9.008;2023-02-05T11:52:25;6.70;71.60
29007;DHT22;16104;48.642;9.008;2023-02-05T11:57:28;6.80;71.60
29007;DHT22;16104;48.642;9.008;2023-02-05T12:07:21;6.80;71.70
29007;DHT22;16104;48.642;9.008;2023-02-05T12:12:32;6.90;71.80
29007;DHT22;16104;48.642;9.008;2023-02-05T12:28:42;7.00;72.10
29007;DHT22;16104;48.642;9.008;2023-02-05T12:34:00;7.00;72.10
29007;DHT22;16104;48.642;9.008;2023-02-05T12:44:15;7.10;72.00
29007;DHT22;16104;48.642;9.008;2023-02-05T12:59:47;7.10;71.90
29007;DHT22;16104;48.642;9.008;2023-02-05T13:05:17;7.10;72.00
29007;DHT22;16104;48.642;9.008;2023-02-05T13:10:14;7.10;72.10
29007;DHT22;16104;48.642;9.008;2023-02-05T13:15:57;7.20;71.80
29007;DHT22;16104;48.642;9.008;2023-02-05T13:20:41;7.20;71.80
29007;DHT22;16104;48.642;9.008;2023-02-05T13:25:56;7.20;71.80
29007;DHT22;16104;48.642;9.008;2023-02-05T13:31:31;7.20;71.70
29007;DHT22;16104;48.642;9.008;2023-02-05T13:42:04;7.20;71.80
29007;DHT22;16104;48.642;9.008;2023-02-05T13:52:39;7.20;71.70
29007;DHT22;16104;48.642;9.008;2023-02-05T14:02:47;7.10;71.20
29007;DHT22;16104;48.642;9.008;2023-02-05T14:07:49;7.10;70.60
29007;DHT22;16104;48.642;9.008;2023-02-05T14:12:45;7.10;70.60
29007;DHT22;16104;48.642;9.008;2023-02-05T14:22:43;6.90;70.30
29007;DHT22;16104;48.642;9.008;2023-02-05T14:37:39;6.70;70.10
29007;DHT22;16104;48.642;9.008;2023-02-05T14:42:36;6.60;70.10
29007;DHT22;16104;48.642;9.008;2023-02-05T14:47:34;6.60;70.20
29007;DHT22;16104;48.642;9.008;2023-02-05T14:52:38;6.50;70.40
29007;DHT22;16104;48.642;9.008;2023-02-05T14:57:49;6.50;70.60
29007;DHT22;16104;48.642;9.008;2023-02-05T15:07:48;6.50;70.80
29007;DHT22;16104;48.642;9.008;2023-02-05T15:13:01;6.40;70.70
29007;DHT22;16104;48.642;9.008;2023-02-05T15:23:05;6.40;71.00
29007;DHT22;16104;48.642;9.008;2023-02-05T15:28:24;6.40;71.00
29007;DHT22;16104;48.642;9.008;2023-02-05T15:33:29;6.40;71.10
29007;DHT22;16104;48.642;9.008;2023-02-05T15:43:27;6.30;70.90
29007;DHT22;16104;48.642;9.008;2023-02-05T15:48:27;6.30;70.90
29007;DHT22;16104;48.642;9.008;2023-02-05T15:53:33;6.30;71.20
29007;DHT22;16104;48.642;9.008;2023-02-05T15:58:29;6.30;71.20
29007;DHT22;16104;48.642;9.008;2023-02-05T16:03:35;6.20;71.10
29007;DHT22;16104;48.642;9.008;2023-02-05T16:08:33;6.20;71.30
29007;DHT22;16104;48.642;9.008;2023-02-05T16:13:28;6.20;71.30
29007;DHT22;16104;48.642;9.008;2023-02-05T16:18:40;6.10;71.10
29007;DHT22;16104;48.642;9.008;2023-02-05T16:23:50;6.10;71.40
29007;DHT22;16104;48.642;9.008;2023-02-05T16:28:57;6.20;71.50
29007;DHT22;16104;48.642;9.008;2023-02-05T16:34:00;6.10;71.30
29007;DHT22;16104;48.642;9.008;2023-02-05T16:38:59;6.10;71.20
29007;DHT22;16104;48.642;9.008;2023-02-05T16:43:58;6.10;71.20
29007;DHT22;16104;48.642;9.008;2023-02-05T16:49:00;6.00;71.30
29007;DHT22;16104;48.642;9.008;2023-02-05T16:53:56;6.00;71.50
29007;DHT22;16104;48.642;9.008;2023-02-05T16:58:56;6.00;71.60
29007;DHT22;16104;48.642;9.008;2023-02-05T17:03:53;5.90;71.80
29007;DHT22;16104;48.642;9.008;2023-02-05T17:08:51;6.00;71.80
29007;DHT22;16104;48.642;9.008;2023-02-05T17:13:49;5.90;71.90
29007;DHT22;16104;48.642;9.008;2023-02-05T17:19:02;5.90;72.00
29007;DHT22;16104;48.642;9.008;2023-02-05T17:23:58;5.90;72.40
29007;DHT22;16104;48.642;9.008;2023-02-05T17:29:03;5.90;72.30
29007;DHT22;16104;48.642;9.008;2023-02-05T17:33:59;5.90;72.60
29007;DHT22;16104;48.642;9.008;2023-02-05T17:38:55;5.90;72.30
29007;DHT22;16104;48.642;9.008;2023-02-05T17:43:50;6.00;72.30
29007;DHT22;16104;48.642;9.008;2023-02-05T17:48:46;6.00;72.30
29007;DHT22;16104;48.642;9.008;2023-02-05T17:53:41;6.00;72.20
29007;DHT22;16104;48.642;9.008;2023-02-05T17:58:37;6.00;72.30
29007;DHT22;16104;48.642;9.008;2023-02-05T18:03:32;6.00;72.20
29007;DHT22;16104;48.642;9.008;2023-02-05T18:08:29;5.90;72.30
29007;DHT22;16104;48.642;9.008;2023-02-05T18:13:25;5.90;72.30
29007;DHT22;16104;48.642;9.008;2023-02-05T18:18:20;5.90;72.30
29007;DHT22;16104;48.642;9.008;2023-02-05T18:23:16;6.00;72.40
29007;DHT22;16104;48.642;9.008;2023-02-05T18:28:12;6.00;72.50
29007;DHT22;16104;48.642;9.008;2023-02-05T18:33:07;5.90;72.60
29007;DHT22;16104;48.642;9.008;2023-02-05T18:38:03;5.90;72.80
29007;DHT22;16104;48.642;9.008;2023-02-05T18:42:58;6.00;72.80
29007;DHT22;16104;48.642;9.008;2023-02-05T18:47:54;6.00;73.00
29007;DHT22;16104;48.642;9.008;2023-02-05T18:52:50;6.00;73.00
29007;DHT22;16104;48.642;9.008;2023-02-05T18:57:45;6.00;73.00
29007;DHT22;16104;48.642;9.008;2023-02-05T19:02:41;6.10;73.10
29007;DHT22;16104;48.642;9.008;2023-02-05T19:07:36;6.10;73.10
29007;DHT22;16104;48.642;9.008;2023-02-05T19:12:33;6.00;73.10
29007;DHT22;16104;48.642;9.008;2023-02-05T19:17:29;6.00;73.80
29007;DHT22;16104;48.642;9.008;2023-02-05T19:22:25;6.00;73.00
29007;DHT22;16104;48.642;9.008;2023-02-05T19:27:20;6.00;73.00
29007;DHT22;16104;48.642;9.008;2023-02-05T19:32:16;6.00;72.80
29007;DHT22;16104;48.642;9.008;2023-02-05T19:37:11;6.00;72.60
29007;DHT22;16104;48.642;9.008;2023-02-05T19:42:07;6.00;72.50
29007;DHT22;16104;48.642;9.008;2023-02-05T19:47:02;6.00;72.50
29007;DHT22;16104;48.642;9.008;2023-02-05T19:51:58;5.90;72.50
29007;DHT22;16104;48.642;9.008;2023-02-05T19:56:54;5.90;72.40
29007;DHT22;16104;48.642;9.008;2023-02-05T20:01:49;5.90;72.60
29007;DHT22;16104;48.642;9.008;2023-02-05T20:06:46;5.90;72.70
29007;DHT22;16104;48.642;9.008;2023-02-05T20:11:43;5.80;72.50
29007;DHT22;16104;48.642;9.008;2023-02-05T20:16:40;5.80;72.40
29007;DHT22;16104;48.642;9.008;2023-02-05T20:21:35;5.80;72.20
29007;DHT22;16104;48.642;9.008;2023-02-05T20:26:31;5.80;72.10
29007;DHT22;16104;48.642;9.008;2023-02-05T20:31:28;5.70;72.10
29007;DHT22;16104;48.642;9.008;2023-02-05T20:36:28;5.70;72.20
29007;DHT22;16104;48.642;9.008;2023-02-05T20:41:24;5.70;72.40
29007;DHT22;16104;48.642;9.008;2023-02-05T20:46:20;5.70;72.30
29007;DHT22;16104;48.642;9.008;2023-02-05T20:51:18;5.60;72.30
29007;DHT22;16104;48.642;9.008;2023-02-05T20:56:16;5.60;72.30
29007;DHT22;16104;48.642;9.008;2023-02-05T21:01:14;5.60;72.10
29007;DHT22;16104;48.642;9.008;2023-02-05T21:06:11;5.50;72.20
29007;DHT22;16104;48.642;9.008;2023-02-05T21:11:06;5.40;72.20
29007;DHT22;16104;48.642;9.008;2023-02-05T21:16:03;5.40;72.20
29007;DHT22;16104;48.642;9.008;2023-02-05T21:21:10;5.40;72.40
29007;DHT22;16104;48.642;9.008;2023-02-05T21:26:06;5.30;72.50
29007;DHT22;16104;48.642;9.008;2023-02-05T21:31:06;5.30;72.50
29007;DHT22;16104;48.642;9.008;2023-02-05T21:36:07;5.30;72.80
29007;DHT22;16104;48.642;9.008;2023-02-05T21:41:12;5.30;72.90
29007;DHT22;16104;48.642;9.008;2023-02-05T21:46:11;5.30;72.70
29007;DHT22;16104;48.642;9.008;2023-02-05T21:51:09;5.20;72.70
29007;DHT22;16104;48.642;9.008;2023-02-05T21:56:09;5.20;72.80
29007;DHT22;16104;48.642;9.008;2023-02-05T22:01:13;5.20;73.00
29007;DHT22;16104;48.642;9.008;2023-02-05T22:06:08;5.20;73.10
29007;DHT22;16104;48.642;9.008;2023-02-05T22:11:08;5.20;73.10
29007;DHT22;16104;48.642;9.008;2023-02-05T22:16:25;5.20;73.00
29007;DHT22;16104;48.642;9.008;2023-02-05T22:21:23;5.20;73.00
29007;DHT22;16104;48.642;9.008;2023-02-05T22:26:21;5.20;73.60
29007;DHT22;16104;48.642;9.008;2023-02-05T22:31:18;5.20;72.80
29007;DHT22;16104;48.642;9.008;2023-02-05T22:36:19;5.20;72.80
29007;DHT22;16104;48.642;9.008;2023-02-05T22:41:27;5.20;73.00
29007;DHT22;16104;48.642;9.008;2023-02-05T22:46:26;5.20;73.00
29007;DHT22;16104;48.642;9.008;2023-02-05T22:51:24;5.20;73.00
29007;DHT22;16104;48.642;9.008;2023-02-05T22:56:20;5.20;73.00
29007;DHT22;16104;48.642;9.008;2023-02-05T23:01:21;5.20;72.80
29007;DHT22;16104;48.642;9.008;2023-02-05T23:06:26;5.20;73.00
29007;DHT22;16104;48.642;9.008;2023-02-05T23:11:23;5.10;72.80
29007;DHT22;16104;48.642;9.008;2023-02-05T23:16:22;5.20;72.80
29007;DHT22;16104;48.642;9.008;2023-02-05T23:21:21;5.10;72.80
29007;DHT22;16104;48.642;9.008;2023-02-05T23:26:20;5.10;72.80
29007;DHT22;16104;48.642;9.008;2023-02-05T23:31:15;5.10;73.00
29007;DHT22;16104;48.642;9.008;2023-02-05T23:36:11;5.10;73.00
29007;DHT22;16104;48.642;9.008;2023-02-05T23:41:07;5.10;73.00
29007;DHT22;16104;48.642;9.008;2023-02-05T23:46:04;5.10;73.00
29007;DHT22;16104;48.642;9.008;2023-02-05T23:51:01;5.00;73.00
29007;DHT22;16104;48.642;9.008;2023-02-05T23:55:56;5.10;73.10
